Time;durP1;ratioP1;P1;durP2;ratioP2;P2;SDS_P1;SDS_P2;PMS_P1;PMS_P2;Temp;Humidity;BMP_temperature;BMP_pressure;BME280_temperature;BME280_humidity;BME280_pressure;Samples;Min_cycle;Max_cycle;Signal;HPM_P1;HPM_P2
2022/01/08 00:01:20;;;;;;;17.08;14.52;;;;;;;;;;4828594;29;20543;-78
2022/01/08 00:03:48;;;;;;;16.02;14.13;;;;;;;;;;4829178;29;20146;-77
2022/01/08 00:06:16;;;;;;;14.82;12.82;;;;;;;;;;4831423;29;20198;-78
2022/01/08 00:08:44;;;;;;;19.40;14.70;;;;;;;;;;4831673;29;20074;-74
2022/01/08 00:11:17;;;;;;;15.73;12.55;;;;;;;;;;4828742;29;20513;-77
2022/01/08 00:13:45;;;;;;;16.42;13.02;;;;;;;;;;4816860;29;20082;-79
2022/01/08 00:16:12;;;;;;;15.82;13.70;;;;;;;;;;4825739;29;20158;-79
2022/01/08 00:18:40;;;;;;;16.52;12.73;;;;;;;;;;4826176;29;20047;-78
2022/01/08 00:21:07;;;;;;;21.65;13.82;;;;;;;;;;4821862;29;20133;-79
2022/01/08 00:23:35;;;;;;;14.57;12.65;;;;;;;;;;4820450;29;20046;-80
2022/01/08 00:26:04;;;;;;;13.70;12.25;;;;;;;;;;4821477;29;20137;-80
2022/01/08 00:28:31;;;;;;;16.38;13.45;;;;;;;;;;4821753;29;20130;-79
2022/01/08 00:30:59;;;;;;;14.50;12.30;;;;;;;;;;4827924;29;20069;-79
2022/01/08 00:33:26;;;;;;;16.00;13.45;;;;;;;;;;4840577;29;20141;-79
2022/01/08 00:35:53;;;;;;;16.25;13.55;;;;;;;;;;4829107;29;20575;-79
2022/01/08 00:38:21;;;;;;;13.07;11.57;;;;;;;;;;4840135;29;20057;-79
2022/01/08 00:40:48;;;;;;;13.93;12.10;;;;;;;;;;4840799;29;20074;-79
2022/01/08 00:43:15;;;;;;;15.70;13.70;;;;;;;;;;4839044;29;20053;-79
2022/01/08 00:45:43;;;;;;;19.65;15.45;;;;;;;;;;4829494;29;20686;-79
2022/01/08 00:48:10;;;;;;;16.35;13.63;;;;;;;;;;4844089;29;20077;-79
2022/01/08 00:50:38;;;;;;;15.23;13.27;;;;;;;;;;4823179;29;20042;-79
2022/01/08 00:53:05;;;;;;;16.92;15.10;;;;;;;;;;4831410;29;20484;-79
2022/01/08 00:55:33;;;;;;;18.17;13.98;;;;;;;;;;4823059;29;20038;-77
2022/01/08 00:58:00;;;;;;;18.25;14.40;;;;;;;;;;4838881;29;20114;-76
2022/01/08 01:00:28;;;;;;;16.17;13.23;;;;;;;;;;4839178;29;20042;-77
2022/01/08 01:02:55;;;;;;;18.75;14.32;;;;;;;;;;4833224;29;20442;-76
2022/01/08 01:05:23;;;;;;;16.95;13.60;;;;;;;;;;4823143;29;20100;-76
2022/01/08 01:07:50;;;;;;;21.75;16.63;;;;;;;;;;4835395;29;20045;-76
2022/01/08 01:10:18;;;;;;;18.63;13.73;;;;;;;;;;4820236;29;20057;-75
2022/01/08 01:12:45;;;;;;;15.27;12.10;;;;;;;;;;4821802;29;20129;-76
2022/01/08 01:15:14;;;;;;;15.05;13.38;;;;;;;;;;4821791;29;20468;-76
2022/01/08 01:17:41;;;;;;;17.45;15.30;;;;;;;;;;4839077;29;20046;-76
2022/01/08 01:20:10;;;;;;;14.63;12.00;;;;;;;;;;4839453;29;20050;-77
2022/01/08 01:23:27;;;;;;;16.58;14.15;;;;;;;;;;4803508;29;20071;-76
2022/01/08 01:25:51;;;;;;;11.85;10.57;;;;;;;;;;4805921;29;20054;-76
2022/01/08 01:41:56;;;;;;;16.50;13.52;;;;;;;;;;4824195;29;20055;-76
2022/01/08 01:47:10;;;;;;;16.85;14.20;;;;;;;;;;4840052;29;20133;-78
2022/01/08 01:49:39;;;;;;;18.38;14.00;;;;;;;;;;4842482;29;20045;-76
2022/01/08 01:52:08;;;;;;;17.48;14.82;;;;;;;;;;4827879;29;20137;-78
2022/01/08 01:54:36;;;;;;;17.92;15.13;;;;;;;;;;4824289;29;20125;-76
2022/01/08 01:57:05;;;;;;;16.67;13.55;;;;;;;;;;4826570;29;20054;-76
2022/01/08 01:59:34;;;;;;;20.55;15.48;;;;;;;;;;4826561;29;20480;-76
2022/01/08 02:02:04;;;;;;;12.15;10.90;;;;;;;;;;4837649;29;20053;-76
2022/01/08 02:04:32;;;;;;;17.38;14.48;;;;;;;;;;4824961;29;20051;-76
2022/01/08 02:07:00;;;;;;;20.70;15.95;;;;;;;;;;4823249;29;20047;-78
2022/01/08 02:09:27;;;;;;;20.33;14.95;;;;;;;;;;4824013;29;20118;-76
2022/01/08 02:12:01;;;;;;;21.00;15.43;;;;;;;;;;4823093;29;20046;-76
2022/01/08 02:14:29;;;;;;;26.48;17.50;;;;;;;;;;4824608;29;20085;-77
2022/01/08 02:16:57;;;;;;;18.30;14.48;;;;;;;;;;4836752;29;20088;-76
2022/01/08 02:19:25;;;;;;;18.10;14.98;;;;;;;;;;4841383;29;20049;-77
2022/01/08 02:21:52;;;;;;;17.92;14.98;;;;;;;;;;4836660;29;20363;-76
2022/01/08 02:24:20;;;;;;;17.33;15.40;;;;;;;;;;4826368;29;20074;-76
2022/01/08 02:26:48;;;;;;;18.17;15.15;;;;;;;;;;4836832;29;20042;-76
2022/01/08 02:29:17;;;;;;;16.98;13.45;;;;;;;;;;4842318;29;20514;-76
2022/01/08 02:31:53;;;;;;;18.17;14.02;;;;;;;;;;4828730;29;20066;-76
2022/01/08 02:34:21;;;;;;;18.75;14.48;;;;;;;;;;4823983;29;20129;-76
2022/01/08 02:36:48;;;;;;;16.65;13.50;;;;;;;;;;4823979;29;20054;-76
2022/01/08 02:39:16;;;;;;;13.43;11.68;;;;;;;;;;4822866;29;20046;-78
2022/01/08 02:41:44;;;;;;;12.30;11.00;;;;;;;;;;4831721;29;20081;-77
2022/01/08 02:44:11;;;;;;;13.15;11.80;;;;;;;;;;4823463;29;20074;-76
2022/01/08 02:46:40;;;;;;;16.25;12.85;;;;;;;;;;4823182;29;20526;-77
2022/01/08 02:49:08;;;;;;;16.52;12.15;;;;;;;;;;4836872;29;20053;-76
2022/01/08 02:51:36;;;;;;;13.70;12.30;;;;;;;;;;4838554;29;20050;-76
2022/01/08 02:54:07;;;;;;;16.60;13.00;;;;;;;;;;4823429;29;20530;-77
2022/01/08 02:56:41;;;;;;;19.52;14.15;;;;;;;;;;4834237;29;20077;-77
2022/01/08 02:59:09;;;;;;;15.90;13.52;;;;;;;;;;4841510;29;20080;-76
2022/01/08 03:01:37;;;;;;;15.45;12.68;;;;;;;;;;4838001;29;20120;-76
2022/01/08 03:04:05;;;;;;;16.55;12.98;;;;;;;;;;4822161;29;20050;-77
2022/01/08 03:06:33;;;;;;;17.20;13.55;;;;;;;;;;4822762;29;20050;-76
2022/01/08 03:09:00;;;;;;;20.30;15.05;;;;;;;;;;4822256;29;20054;-78
2022/01/08 03:11:27;;;;;;;15.52;12.20;;;;;;;;;;4821944;29;20059;-78
2022/01/08 03:13:55;;;;;;;13.77;11.57;;;;;;;;;;4822021;29;20095;-78
2022/01/08 03:16:22;;;;;;;16.20;13.40;;;;;;;;;;4824637;29;20042;-78
2022/01/08 03:18:50;;;;;;;18.17;14.43;;;;;;;;;;4821184;29;20056;-79
2022/01/08 03:21:20;;;;;;;19.73;14.32;;;;;;;;;;4821525;29;20161;-78
2022/01/08 03:23:52;;;;;;;18.33;14.25;;;;;;;;;;4821517;29;20042;-78
2022/01/08 03:26:22;;;;;;;16.35;13.57;;;;;;;;;;4829541;29;20042;-78
2022/01/08 03:28:50;;;;;;;16.40;12.50;;;;;;;;;;4839554;29;20110;-78
2022/01/08 03:31:17;;;;;;;16.88;13.30;;;;;;;;;;4839500;29;20050;-78
2022/01/08 03:33:45;;;;;;;12.35;11.05;;;;;;;;;;4822752;29;20149;-79
2022/01/08 03:36:14;;;;;;;12.75;11.45;;;;;;;;;;4835036;24;20474;-76
2022/01/08 03:38:42;;;;;;;16.90;13.35;;;;;;;;;;4821726;29;20121;-76
2022/01/08 03:41:09;;;;;;;13.38;11.70;;;;;;;;;;4821853;29;20046;-76
2022/01/08 03:43:37;;;;;;;17.05;12.45;;;;;;;;;;4821288;29;20475;-76
2022/01/08 03:46:05;;;;;;;19.65;14.68;;;;;;;;;;4828538;29;20054;-76
2022/01/08 03:48:48;;;;;;;11.82;10.50;;;;;;;;;;4840082;29;20129;-76
2022/01/08 03:51:15;;;;;;;15.77;12.23;;;;;;;;;;4829723;29;20476;-76
2022/01/08 03:53:44;;;;;;;15.10;12.65;;;;;;;;;;4820765;29;20067;-76
2022/01/08 03:56:11;;;;;;;9.32;8.25;;;;;;;;;;4828960;29;20050;-76
2022/01/08 03:58:38;;;;;;;12.77;11.07;;;;;;;;;;4839703;29;20141;-76
2022/01/08 04:01:06;;;;;;;11.82;10.63;;;;;;;;;;4831603;29;20082;-76
2022/01/08 04:03:33;;;;;;;11.45;10.23;;;;;;;;;;4821430;29;20129;-76
2022/01/08 04:06:01;;;;;;;26.90;17.23;;;;;;;;;;4821777;29;20046;-76
2022/01/08 04:08:29;;;;;;;9.55;8.35;;;;;;;;;;4821542;29;20129;-76
2022/01/08 04:10:56;;;;;;;12.57;11.27;;;;;;;;;;4821042;29;20042;-76
2022/01/08 04:13:29;;;;;;;15.48;12.60;;;;;;;;;;4820002;29;20054;-76
2022/01/08 04:16:09;;;;;;;11.77;10.30;;;;;;;;;;4825869;29;20127;-76
2022/01/08 04:18:36;;;;;;;20.92;14.75;;;;;;;;;;4839565;29;20084;-76
2022/01/08 04:23:46;;;;;;;16.00;12.93;;;;;;;;;;4821153;29;20050;-76
2022/01/08 04:26:14;;;;;;;23.02;16.65;;;;;;;;;;4827879;29;20090;-76
2022/01/08 04:28:41;;;;;;;15.60;12.77;;;;;;;;;;4839208;29;20134;-76
2022/01/08 04:31:08;;;;;;;32.63;17.88;;;;;;;;;;4831214;29;20423;-76
2022/01/08 04:33:36;;;;;;;16.33;13.25;;;;;;;;;;4820566;29;20529;-76
2022/01/08 04:36:03;;;;;;;16.38;12.43;;;;;;;;;;4827850;29;20042;-76
2022/01/08 04:38:32;;;;;;;11.88;9.85;;;;;;;;;;4839545;29;20133;-76
2022/01/08 04:40:59;;;;;;;11.90;9.45;;;;;;;;;;4831332;29;20049;-76
2022/01/08 04:43:28;;;;;;;13.45;10.48;;;;;;;;;;4821050;29;20567;-76
2022/01/08 04:45:56;;;;;;;13.27;11.90;;;;;;;;;;4826411;29;20065;-76
2022/01/08 04:48:23;;;;;;;14.70;12.68;;;;;;;;;;4839251;29;20074;-76
2022/01/08 04:50:50;;;;;;;15.00;10.77;;;;;;;;;;4833696;29;20042;-76
2022/01/08 04:53:18;;;;;;;13.50;11.27;;;;;;;;;;4804441;29;20102;-76
2022/01/08 04:55:45;;;;;;;14.45;11.88;;;;;;;;;;4825240;29;20056;-76
2022/01/08 04:58:13;;;;;;;11.90;9.40;;;;;;;;;;4839013;29;20046;-76
2022/01/08 05:00:41;;;;;;;14.07;10.85;;;;;;;;;;4833343;29;20577;-75
2022/01/08 05:03:08;;;;;;;14.50;11.57;;;;;;;;;;4819393;29;20074;-76
2022/01/08 05:05:36;;;;;;;15.98;11.88;;;;;;;;;;4823680;29;20042;-76
2022/01/08 05:08:03;;;;;;;14.52;11.70;;;;;;;;;;4838985;29;20076;-76
2022/01/08 05:10:33;;;;;;;10.20;8.15;;;;;;;;;;4837895;29;20046;-75
2022/01/08 05:13:04;;;;;;;11.77;10.57;;;;;;;;;;4832260;29;20041;-75
2022/01/08 05:15:32;;;;;;;11.43;8.98;;;;;;;;;;4826821;29;20064;-76
2022/01/08 05:18:00;;;;;;;12.57;10.15;;;;;;;;;;4842533;29;20057;-76
2022/01/08 05:20:32;;;;;;;9.68;8.20;;;;;;;;;;4839499;29;20141;-76
2022/01/08 05:23:00;;;;;;;20.23;14.35;;;;;;;;;;4823924;29;20046;-76
2022/01/08 05:25:28;;;;;;;15.80;12.57;;;;;;;;;;4822921;29;20146;-75
2022/01/08 05:27:56;;;;;;;13.45;10.60;;;;;;;;;;4822958;29;20141;-76
2022/01/08 05:30:24;;;;;;;11.35;10.15;;;;;;;;;;4823706;29;20042;-76
2022/01/08 05:32:52;;;;;;;13.25;9.35;;;;;;;;;;4822136;29;20095;-75
2022/01/08 05:35:20;;;;;;;15.32;11.18;;;;;;;;;;4824540;29;20399;-75
2022/01/08 05:37:47;;;;;;;14.05;10.63;;;;;;;;;;4841140;29;20049;-75
2022/01/08 05:40:15;;;;;;;15.35;11.73;;;;;;;;;;4840488;29;20057;-75
2022/01/08 05:42:42;;;;;;;9.75;8.77;;;;;;;;;;4823435;29;20291;-75
2022/01/08 05:45:10;;;;;;;19.65;13.57;;;;;;;;;;4823510;29;20636;-75
2022/01/08 05:47:38;;;;;;;11.13;8.10;;;;;;;;;;4823718;29;20107;-75
2022/01/08 05:50:06;;;;;;;13.60;11.07;;;;;;;;;;4823719;29;20051;-75
2022/01/08 05:52:33;;;;;;;10.10;7.88;;;;;;;;;;4823462;29;20121;-75
2022/01/08 05:55:00;;;;;;;10.52;9.20;;;;;;;;;;4823624;29;20508;-75
2022/01/08 05:57:28;;;;;;;9.25;7.90;;;;;;;;;;4823688;29;20407;-75
2022/01/08 05:59:55;;;;;;;13.55;9.20;;;;;;;;;;4822957;29;20575;-75
2022/01/08 06:02:22;;;;;;;11.48;9.70;;;;;;;;;;4839894;29;20129;-75
2022/01/08 06:04:50;;;;;;;11.70;9.27;;;;;;;;;;4841634;29;20482;-75
2022/01/08 06:07:17;;;;;;;12.10;9.85;;;;;;;;;;4809145;29;20211;-75
2022/01/08 06:09:45;;;;;;;12.85;9.43;;;;;;;;;;4822876;29;20062;-75
2022/01/08 06:12:12;;;;;;;12.55;9.25;;;;;;;;;;4838149;29;20086;-75
2022/01/08 06:14:39;;;;;;;12.55;10.07;;;;;;;;;;4841562;29;20132;-75
2022/01/08 06:17:07;;;;;;;13.50;10.02;;;;;;;;;;4839501;29;20054;-75
2022/01/08 06:19:35;;;;;;;14.43;10.60;;;;;;;;;;4836447;29;20129;-75
2022/01/08 06:22:02;;;;;;;12.48;9.65;;;;;;;;;;4836878;29;20404;-76
2022/01/08 06:24:30;;;;;;;10.20;6.90;;;;;;;;;;4841309;29;20054;-75
2022/01/08 06:26:57;;;;;;;11.85;7.85;;;;;;;;;;4827430;29;20140;-75
2022/01/08 06:29:25;;;;;;;10.45;8.02;;;;;;;;;;4822358;29;20094;-75
2022/01/08 06:31:53;;;;;;;11.57;8.63;;;;;;;;;;4835782;29;20057;-75
2022/01/08 06:34:21;;;;;;;17.20;11.80;;;;;;;;;;4825052;29;20062;-75
2022/01/08 06:36:48;;;;;;;13.20;9.52;;;;;;;;;;4840513;29;20582;-75
2022/01/08 06:39:16;;;;;;;14.85;11.07;;;;;;;;;;4839874;29;20057;-74
2022/01/08 06:41:44;;;;;;;15.55;11.98;;;;;;;;;;4822649;29;20074;-75
2022/01/08 06:44:11;;;;;;;22.08;13.40;;;;;;;;;;4821478;29;20133;-75
2022/01/08 06:46:40;;;;;;;12.73;9.48;;;;;;;;;;4822588;29;20134;-75
2022/01/08 06:49:08;;;;;;;9.85;7.35;;;;;;;;;;4822710;29;20056;-75
2022/01/08 06:51:36;;;;;;;14.27;10.02;;;;;;;;;;4821389;29;20080;-75
2022/01/08 06:54:03;;;;;;;14.02;9.40;;;;;;;;;;4821167;29;20137;-75
2022/01/08 06:56:31;;;;;;;10.57;7.15;;;;;;;;;;4822462;29;20046;-75
2022/01/08 06:58:58;;;;;;;13.05;8.95;;;;;;;;;;4822666;29;20054;-75
2022/01/08 07:01:26;;;;;;;12.20;8.63;;;;;;;;;;4829812;29;20487;-75
2022/01/08 07:03:55;;;;;;;15.20;9.27;;;;;;;;;;4839496;29;20083;-74
2022/01/08 07:06:22;;;;;;;20.67;14.15;;;;;;;;;;4840331;29;20042;-74
2022/01/08 07:08:53;;;;;;;28.35;16.73;;;;;;;;;;4840609;29;20049;-75
2022/01/08 07:11:21;;;;;;;14.93;9.70;;;;;;;;;;4832878;29;20587;-75
2022/01/08 07:13:48;;;;;;;24.83;15.02;;;;;;;;;;4839439;29;20050;-75
2022/01/08 07:16:15;;;;;;;21.73;14.27;;;;;;;;;;4832867;29;20129;-75
2022/01/08 07:18:43;;;;;;;21.60;14.07;;;;;;;;;;4821379;29;20473;-75
2022/01/08 07:21:10;;;;;;;27.05;17.48;;;;;;;;;;4828665;29;20452;-75
2022/01/08 07:23:37;;;;;;;28.50;19.95;;;;;;;;;;4838924;29;20084;-75
2022/01/08 07:26:05;;;;;;;23.10;14.93;;;;;;;;;;4832209;29;20457;-75
2022/01/08 07:28:32;;;;;;;25.63;17.55;;;;;;;;;;4822119;29;20044;-75
2022/01/08 07:31:00;;;;;;;34.45;20.20;;;;;;;;;;4827487;29;20069;-75
2022/01/08 07:33:27;;;;;;;26.90;16.92;;;;;;;;;;4839951;29;20056;-75
2022/01/08 07:35:54;;;;;;;28.05;17.33;;;;;;;;;;4837604;29;20077;-74
2022/01/08 07:38:22;;;;;;;31.02;19.92;;;;;;;;;;4839808;29;20140;-75
2022/01/08 07:40:51;;;;;;;31.65;20.23;;;;;;;;;;4828036;29;20102;-75
2022/01/08 07:43:19;;;;;;;31.83;20.00;;;;;;;;;;4821828;29;20046;-75
2022/01/08 07:45:47;;;;;;;34.40;21.25;;;;;;;;;;4828740;29;20070;-75
2022/01/08 07:48:15;;;;;;;32.63;20.02;;;;;;;;;;4821732;29;20042;-75
2022/01/08 07:50:43;;;;;;;22.58;14.55;;;;;;;;;;4825010;29;20487;-75
2022/01/08 07:53:10;;;;;;;25.42;15.88;;;;;;;;;;4829040;29;20034;-75
2022/01/08 07:55:38;;;;;;;22.45;14.80;;;;;;;;;;4831259;29;20192;-75
2022/01/08 07:58:05;;;;;;;26.65;16.27;;;;;;;;;;4821121;29;20070;-75
2022/01/08 08:00:32;;;;;;;26.83;17.48;;;;;;;;;;4825508;29;20456;-76
2022/01/08 08:03:00;;;;;;;23.83;16.63;;;;;;;;;;4825996;29;20057;-75
2022/01/08 08:05:31;;;;;;;31.60;20.27;;;;;;;;;;4830065;29;20038;-76
2022/01/08 08:07:59;;;;;;;24.65;16.00;;;;;;;;;;4830929;29;20039;-76
2022/01/08 08:10:28;;;;;;;23.55;14.85;;;;;;;;;;4820776;29;20042;-75
2022/01/08 08:12:56;;;;;;;20.77;13.27;;;;;;;;;;4827206;29;20125;-75
2022/01/08 08:15:23;;;;;;;22.50;14.52;;;;;;;;;;4837158;29;20054;-76
2022/01/08 08:17:51;;;;;;;22.38;13.88;;;;;;;;;;4831710;29;20422;-76
2022/01/08 08:20:18;;;;;;;24.17;15.02;;;;;;;;;;4828832;29;20102;-76
2022/01/08 08:22:46;;;;;;;17.95;12.18;;;;;;;;;;4821933;29;20042;-75
2022/01/08 08:25:13;;;;;;;18.85;12.00;;;;;;;;;;4833958;29;20104;-75
2022/01/08 08:27:41;;;;;;;22.30;15.25;;;;;;;;;;4822588;29;20050;-75
2022/01/08 08:30:09;;;;;;;21.55;13.90;;;;;;;;;;4826999;29;20133;-75
2022/01/08 08:32:37;;;;;;;24.27;15.75;;;;;;;;;;4827381;29;20189;-76
2022/01/08 08:35:05;;;;;;;21.23;13.15;;;;;;;;;;4836491;29;20559;-76
2022/01/08 08:37:34;;;;;;;23.05;14.93;;;;;;;;;;4829944;29;20050;-76
2022/01/08 08:40:01;;;;;;;28.13;16.92;;;;;;;;;;4831938;29;20062;-75
2022/01/08 08:42:29;;;;;;;23.58;14.27;;;;;;;;;;4835640;29;20476;-76
2022/01/08 08:44:56;;;;;;;23.75;16.17;;;;;;;;;;4828238;29;20137;-76
2022/01/08 08:47:23;;;;;;;24.20;17.75;;;;;;;;;;4834117;29;20132;-76
2022/01/08 08:49:51;;;;;;;18.35;11.25;;;;;;;;;;4831638;29;20134;-75
2022/01/08 08:52:18;;;;;;;12.63;9.20;;;;;;;;;;4837542;29;20050;-76
2022/01/08 08:54:45;;;;;;;15.95;11.77;;;;;;;;;;4842003;29;20042;-76
2022/01/08 08:57:13;;;;;;;14.00;11.00;;;;;;;;;;4829250;29;20259;-76
2022/01/08 08:59:40;;;;;;;18.10;11.77;;;;;;;;;;4837248;29;20046;-76
2022/01/08 09:02:08;;;;;;;16.77;11.88;;;;;;;;;;4828080;29;20467;-76
2022/01/08 09:04:40;;;;;;;16.00;11.40;;;;;;;;;;4830100;29;20046;-76
2022/01/08 09:07:09;;;;;;;15.18;10.50;;;;;;;;;;4857277;29;20056;-76
2022/01/08 09:09:36;;;;;;;16.33;12.23;;;;;;;;;;4855117;29;20101;-76
2022/01/08 09:12:04;;;;;;;16.23;10.45;;;;;;;;;;4840324;29;20064;-76
2022/01/08 09:14:32;;;;;;;17.75;11.90;;;;;;;;;;4858153;29;20077;-76
2022/01/08 09:17:02;;;;;;;17.02;10.73;;;;;;;;;;4838237;29;20084;-75
2022/01/08 09:19:30;;;;;;;19.13;13.15;;;;;;;;;;4857542;29;20049;-75
2022/01/08 09:21:57;;;;;;;17.70;12.32;;;;;;;;;;4857207;29;20053;-75
2022/01/08 09:24:25;;;;;;;18.00;11.55;;;;;;;;;;4839790;29;20061;-76
2022/01/08 09:26:52;;;;;;;20.90;13.10;;;;;;;;;;4839733;29;20141;-76
2022/01/08 09:29:19;;;;;;;17.77;12.20;;;;;;;;;;4857412;29;20396;-76
2022/01/08 09:31:47;;;;;;;19.42;13.02;;;;;;;;;;4856458;29;20086;-76
2022/01/08 09:34:14;;;;;;;18.80;12.07;;;;;;;;;;4857011;29;20597;-76
2022/01/08 09:36:43;;;;;;;18.90;12.75;;;;;;;;;;4850207;23;20086;-77
2022/01/08 09:39:11;;;;;;;15.82;10.43;;;;;;;;;;4822187;29;20460;-76
2022/01/08 09:41:38;;;;;;;19.75;13.20;;;;;;;;;;4833770;29;20450;-76
2022/01/08 09:44:05;;;;;;;15.55;10.20;;;;;;;;;;4829768;29;20081;-76
2022/01/08 09:46:33;;;;;;;23.95;12.73;;;;;;;;;;4823762;29;20455;-76
2022/01/08 09:49:00;;;;;;;20.90;13.07;;;;;;;;;;4820275;29;20125;-76
2022/01/08 09:51:28;;;;;;;20.25;12.48;;;;;;;;;;4823639;29;20053;-76
2022/01/08 09:53:56;;;;;;;13.75;10.00;;;;;;;;;;4841815;29;20576;-76
2022/01/08 09:56:25;;;;;;;13.77;9.30;;;;;;;;;;4841049;29;20512;-76
2022/01/08 09:58:53;;;;;;;20.65;11.95;;;;;;;;;;4836858;29;20093;-77
2022/01/08 10:01:26;;;;;;;23.75;12.15;;;;;;;;;;4842419;29;20083;-78
2022/01/08 10:03:53;;;;;;;18.05;11.10;;;;;;;;;;4793906;29;20069;-77
2022/01/08 10:06:22;;;;;;;17.90;12.00;;;;;;;;;;4819009;29;20149;-77
2022/01/08 10:08:50;;;;;;;14.18;10.07;;;;;;;;;;4800244;29;20501;-77
2022/01/08 10:11:17;;;;;;;20.92;12.15;;;;;;;;;;4812803;29;20096;-76
2022/01/08 10:13:47;;;;;;;19.73;12.02;;;;;;;;;;4794284;29;20055;-77
2022/01/08 10:19:04;;;;;;;11.82;8.38;;;;;;;;;;4787317;29;20227;-76
2022/01/08 10:21:37;;;;;;;16.88;9.77;;;;;;;;;;4806367;29;20094;-76
2022/01/08 10:24:08;;;;;;;15.77;9.80;;;;;;;;;;4787371;29;20082;-77
2022/01/08 10:26:37;;;;;;;10.05;7.47;;;;;;;;;;4787133;29;20139;-76
2022/01/08 10:29:07;;;;;;;12.05;7.97;;;;;;;;;;4802237;29;20462;-76
2022/01/08 10:31:39;;;;;;;10.02;6.78;;;;;;;;;;4804066;29;20054;-76
2022/01/08 10:34:08;;;;;;;8.18;7.10;;;;;;;;;;4804585;29;20412;-76
2022/01/08 10:36:36;;;;;;;9.23;6.25;;;;;;;;;;4832921;29;20062;-76
2022/01/08 10:39:08;;;;;;;7.85;5.32;;;;;;;;;;4839577;29;20106;-76
2022/01/08 10:42:02;;;;;;;8.13;5.97;;;;;;;;;;4828170;29;20125;-76
2022/01/08 10:44:32;;;;;;;10.20;6.38;;;;;;;;;;4830390;29;20106;-77
2022/01/08 10:47:00;;;;;;;10.25;7.20;;;;;;;;;;4792728;29;20133;-76
2022/01/08 10:49:32;;;;;;;12.48;7.78;;;;;;;;;;4851092;29;20046;-77
2022/01/08 10:52:00;;;;;;;9.32;6.32;;;;;;;;;;4805597;29;20050;-77
2022/01/08 10:54:32;;;;;;;8.63;6.13;;;;;;;;;;4831327;29;20042;-78
2022/01/08 10:57:00;;;;;;;10.27;7.22;;;;;;;;;;4828327;29;20130;-78
2022/01/08 10:59:28;;;;;;;11.77;7.07;;;;;;;;;;4830835;29;20502;-77
2022/01/08 11:01:57;;;;;;;8.27;5.75;;;;;;;;;;4822759;29;20552;-77
2022/01/08 11:04:28;;;;;;;8.68;6.25;;;;;;;;;;4849036;29;20549;-77
2022/01/08 11:06:57;;;;;;;7.20;6.18;;;;;;;;;;4834297;29;20053;-78
2022/01/08 11:09:26;;;;;;;9.82;5.88;;;;;;;;;;4821595;29;20073;-78
2022/01/08 11:11:54;;;;;;;6.15;4.30;;;;;;;;;;4852918;29;20084;-77
2022/01/08 11:17:13;;;;;;;6.78;5.15;;;;;;;;;;4836209;29;20132;-77
2022/01/08 11:19:44;;;;;;;9.90;6.05;;;;;;;;;;4834213;29;20057;-77
2022/01/08 11:22:13;;;;;;;7.80;5.72;;;;;;;;;;4823058;29;20048;-77
2022/01/08 11:24:47;;;;;;;6.43;5.32;;;;;;;;;;4828617;29;20551;-77
2022/01/08 11:27:15;;;;;;;6.03;4.97;;;;;;;;;;4837385;29;20491;-77
2022/01/08 11:29:44;;;;;;;12.82;5.88;;;;;;;;;;4814689;29;20046;-77
2022/01/08 11:32:18;;;;;;;5.97;4.68;;;;;;;;;;5064469;28;20865;-73
2022/01/08 11:34:46;;;;;;;8.48;5.13;;;;;;;;;;5045136;28;20038;-73
2022/01/08 11:37:14;;;;;;;5.82;5.22;;;;;;;;;;5045632;28;20114;-74
2022/01/08 11:39:44;;;;;;;9.88;5.75;;;;;;;;;;5045455;28;20072;-74
2022/01/08 11:42:13;;;;;;;10.35;5.93;;;;;;;;;;5043238;28;20053;-74
2022/01/08 11:44:40;;;;;;;7.15;5.47;;;;;;;;;;5045878;28;20529;-73
2022/01/08 11:47:09;;;;;;;7.63;6.03;;;;;;;;;;5045159;28;20059;-73
2022/01/08 11:49:36;;;;;;;7.35;5.63;;;;;;;;;;5044763;28;20501;-73
2022/01/08 11:52:17;;;;;;;10.55;6.22;;;;;;;;;;5045630;28;20065;-73
2022/01/08 11:54:45;;;;;;;8.00;5.88;;;;;;;;;;5045025;28;20391;-74
2022/01/08 11:57:24;;;;;;;9.52;5.65;;;;;;;;;;5045961;28;20378;-73
2022/01/08 11:59:59;;;;;;;6.25;5.13;;;;;;;;;;5045230;28;20132;-73
2022/01/08 12:02:39;;;;;;;9.75;5.78;;;;;;;;;;5045686;28;20350;-74
2022/01/08 12:05:08;;;;;;;11.25;5.25;;;;;;;;;;5045410;28;20124;-73
2022/01/08 12:07:39;;;;;;;8.05;5.43;;;;;;;;;;5045753;28;20037;-73
2022/01/08 12:10:22;;;;;;;9.67;5.03;;;;;;;;;;5045401;28;20072;-73
2022/01/08 12:12:59;;;;;;;6.40;5.50;;;;;;;;;;5046148;28;20565;-73
2022/01/08 12:15:42;;;;;;;3.03;2.65;;;;;;;;;;5043395;28;20064;-73
2022/01/08 12:18:10;;;;;;;7.50;6.10;;;;;;;;;;5046082;28;20064;-73
2022/01/08 12:20:38;;;;;;;7.70;5.22;;;;;;;;;;5044300;28;20037;-73
2022/01/08 12:23:23;;;;;;;7.72;4.75;;;;;;;;;;5045247;28;20042;-73
2022/01/08 12:25:51;;;;;;;3.72;3.30;;;;;;;;;;5044647;28;20045;-73
2022/01/08 12:28:37;;;;;;;4.80;3.10;;;;;;;;;;5045370;28;20436;-73
2022/01/08 12:31:22;;;;;;;3.63;3.33;;;;;;;;;;5043585;28;20044;-72
2022/01/08 12:34:14;;;;;;;2.03;1.92;;;;;;;;;;5043706;28;20045;-73
2022/01/08 12:36:55;;;;;;;1.77;1.67;;;;;;;;;;5044295;28;20087;-73
2022/01/08 12:39:42;;;;;;;4.85;2.20;;;;;;;;;;5044126;28;20111;-70
2022/01/08 12:42:26;;;;;;;1.92;1.83;;;;;;;;;;5039945;28;20045;-71
2022/01/08 12:44:58;;;;;;;1.83;1.73;;;;;;;;;;5031848;28;20041;-72
2022/01/08 12:47:37;;;;;;;2.30;2.10;;;;;;;;;;5031477;28;20485;-72
2022/01/08 12:50:17;;;;;;;1.95;1.75;;;;;;;;;;5029683;28;20457;-72
2022/01/08 12:53:03;;;;;;;2.10;1.70;;;;;;;;;;5029355;28;20033;-71
2022/01/08 12:55:31;;;;;;;1.92;1.83;;;;;;;;;;5028178;28;20065;-71
2022/01/08 12:57:58;;;;;;;1.45;1.35;;;;;;;;;;5029633;28;20056;-71
2022/01/08 13:00:26;;;;;;;4.93;1.85;;;;;;;;;;5029165;28;20123;-71
2022/01/08 13:02:53;;;;;;;1.45;1.35;;;;;;;;;;5028948;28;20048;-70
2022/01/08 13:05:21;;;;;;;1.20;1.20;;;;;;;;;;5029051;28;20972;-72
2022/01/08 13:07:49;;;;;;;5.18;2.60;;;;;;;;;;5028030;28;20117;-69
2022/01/08 13:10:17;;;;;;;2.95;2.75;;;;;;;;;;5029859;28;20432;-69
2022/01/08 13:12:59;;;;;;;1.98;1.80;;;;;;;;;;5029535;28;20136;-69
2022/01/08 13:15:31;;;;;;;3.05;2.28;;;;;;;;;;5027554;28;20489;-69
2022/01/08 13:18:17;;;;;;;2.92;2.10;;;;;;;;;;5030610;28;20057;-71
2022/01/08 13:20:44;;;;;;;2.53;2.28;;;;;;;;;;5027604;28;20117;-69
2022/01/08 13:23:12;;;;;;;1.83;1.73;;;;;;;;;;5031026;28;20127;-69
2022/01/08 13:25:40;;;;;;;2.80;2.40;;;;;;;;;;5031789;28;20037;-69
2022/01/08 13:28:07;;;;;;;2.15;2.05;;;;;;;;;;5031347;28;20041;-69
2022/01/08 13:30:36;;;;;;;4.07;3.67;;;;;;;;;;5030903;28;20067;-69
2022/01/08 13:33:04;;;;;;;10.10;5.35;;;;;;;;;;5031662;28;20048;-69
2022/01/08 13:35:33;;;;;;;6.15;3.72;;;;;;;;;;5029232;28;21494;-72
2022/01/08 13:38:01;;;;;;;4.43;2.85;;;;;;;;;;5034972;28;20105;-71
2022/01/08 13:40:28;;;;;;;3.50;3.20;;;;;;;;;;5034441;28;20050;-71
2022/01/08 13:42:55;;;;;;;2.78;2.58;;;;;;;;;;5015362;28;20246;-70
2022/01/08 13:45:26;;;;;;;4.10;2.85;;;;;;;;;;5030690;28;20030;-70
2022/01/08 13:47:54;;;;;;;6.45;4.22;;;;;;;;;;5029966;28;20567;-72
2022/01/08 13:50:27;;;;;;;5.43;3.80;;;;;;;;;;5026577;28;20077;-72
2022/01/08 13:52:58;;;;;;;4.53;3.05;;;;;;;;;;5010124;28;20389;-74
2022/01/08 13:55:41;;;;;;;3.00;2.72;;;;;;;;;;5015770;28;20044;-74
2022/01/08 13:58:11;;;;;;;3.80;3.50;;;;;;;;;;5005287;28;20506;-73
2022/01/08 14:00:38;;;;;;;3.28;3.03;;;;;;;;;;5008724;28;20076;-73
2022/01/08 14:03:18;;;;;;;5.38;4.07;;;;;;;;;;5013649;28;20061;-73
2022/01/08 14:05:46;;;;;;;3.22;2.92;;;;;;;;;;5015907;28;20033;-71
2022/01/08 14:08:13;;;;;;;4.70;4.30;;;;;;;;;;5011075;28;20497;-72
2022/01/08 14:10:42;;;;;;;3.92;3.55;;;;;;;;;;5010868;28;20050;-74
2022/01/08 14:13:16;;;;;;;4.70;4.30;;;;;;;;;;5007088;28;20164;-73
2022/01/08 14:15:45;;;;;;;6.05;4.47;;;;;;;;;;5015916;28;20429;-73
2022/01/08 14:18:15;;;;;;;4.78;4.22;;;;;;;;;;5013627;28;20052;-74
2022/01/08 14:20:42;;;;;;;5.18;4.57;;;;;;;;;;5013927;28;20033;-73
2022/01/08 14:23:14;;;;;;;2.70;2.47;;;;;;;;;;5019408;28;20116;-74
2022/01/08 14:25:44;;;;;;;5.88;4.82;;;;;;;;;;5017400;28;20037;-73
2022/01/08 14:28:31;;;;;;;4.07;3.70;;;;;;;;;;5016005;28;20505;-74
2022/01/08 14:31:18;;;;;;;6.85;5.35;;;;;;;;;;5015535;28;20481;-73
2022/01/08 14:34:01;;;;;;;6.45;5.25;;;;;;;;;;5015399;28;20034;-73
2022/01/08 14:36:51;;;;;;;6.00;3.95;;;;;;;;;;5010932;28;20121;-71
2022/01/08 14:39:48;;;;;;;7.60;4.63;;;;;;;;;;5012493;28;20455;-71
2022/01/08 14:42:17;;;;;;;3.78;3.42;;;;;;;;;;5001994;28;20045;-71
2022/01/08 14:44:57;;;;;;;6.60;5.28;;;;;;;;;;5002963;28;20128;-71
2022/01/08 14:47:34;;;;;;;5.43;4.88;;;;;;;;;;4999918;28;20645;-71
2022/01/08 14:50:03;;;;;;;4.07;3.63;;;;;;;;;;5001321;28;20046;-72
2022/01/08 14:52:30;;;;;;;2.85;2.60;;;;;;;;;;5001356;28;20418;-71
2022/01/08 14:54:58;;;;;;;12.10;5.63;;;;;;;;;;4978707;28;20208;-72
2022/01/08 14:57:25;;;;;;;7.55;5.78;;;;;;;;;;4998081;28;20034;-72
2022/01/08 14:59:52;;;;;;;7.90;6.63;;;;;;;;;;4999832;28;20053;-72
2022/01/08 15:02:20;;;;;;;6.20;5.60;;;;;;;;;;4976369;28;20133;-72
2022/01/08 15:04:47;;;;;;;7.95;6.38;;;;;;;;;;5001670;28;20398;-71